createdAt,value
2023-02-22T00:02:19.427Z,1022.29
2023-02-22T00:04:46.265Z,1022.15
2023-02-22T00:07:14.419Z,1022.23
2023-02-22T00:09:41.346Z,1022.15
2023-02-22T00:12:09.157Z,1022.27
2023-02-22T00:14:35.965Z,1022.24
2023-02-22T00:17:02.714Z,1022.28
2023-02-22T00:19:29.471Z,1022.24
2023-02-22T00:21:56.629Z,1022.30
2023-02-22T00:24:24.763Z,1022.30
2023-02-22T00:26:52.526Z,1022.37
2023-02-22T00:29:19.269Z,1022.38
2023-02-22T00:31:46.088Z,1022.30
2023-02-22T00:34:14.448Z,1022.23
2023-02-22T00:36:45.401Z,1022.37
2023-02-22T00:39:12.169Z,1022.43
2023-02-22T00:41:40.310Z,1022.22
2023-02-22T00:44:07.137Z,1022.23
2023-02-22T00:46:34.046Z,1022.24
2023-02-22T00:49:00.878Z,1022.27
2023-02-22T00:51:27.856Z,1022.28
2023-02-22T00:53:54.565Z,1022.24
2023-02-22T00:56:21.307Z,1022.33
2023-02-22T00:58:49.403Z,1022.32
2023-02-22T01:01:16.741Z,1022.23
2023-02-22T01:03:43.725Z,1022.21
2023-02-22T01:06:10.554Z,1022.16
2023-02-22T01:08:37.355Z,1022.18
2023-02-22T01:11:04.306Z,1022.21
2023-02-22T01:13:31.047Z,1022.28
2023-02-22T01:15:59.183Z,1022.22
2023-02-22T01:18:26.277Z,1022.23
2023-02-22T01:20:53.041Z,1022.23
2023-02-22T01:23:19.963Z,1022.26
2023-02-22T01:25:46.740Z,1022.18
2023-02-22T01:28:13.472Z,1022.04
2023-02-22T01:30:40.327Z,1022.01
2023-02-22T01:33:09.385Z,1021.99
2023-02-22T01:35:38.070Z,1021.95
2023-02-22T01:38:04.869Z,1022.02
2023-02-22T01:40:33.747Z,1021.98
2023-02-22T01:43:04.154Z,1021.95
2023-02-22T01:45:49.005Z,1021.97
2023-02-22T01:48:22.393Z,1022.06
2023-02-22T01:50:52.209Z,1022.16
2023-02-22T01:53:20.572Z,1022.11
2023-02-22T01:55:48.113Z,1022.16
2023-02-22T01:58:18.593Z,1022.11
2023-02-22T02:00:45.341Z,1022.08
2023-02-22T02:03:15.413Z,1022.10
2023-02-22T02:05:44.308Z,1022.08
2023-02-22T02:08:21.592Z,1022.08
2023-02-22T02:10:48.925Z,1022.00
2023-02-22T02:13:16.327Z,1021.98
2023-02-22T02:15:43.285Z,1021.96
2023-02-22T02:18:12.464Z,1021.81
2023-02-22T02:20:50.036Z,1021.88
2023-02-22T02:23:38.786Z,1021.95
2023-02-22T02:26:27.509Z,1022.04
2023-02-22T02:29:24.369Z,1021.97
2023-02-22T02:32:15.636Z,1021.96
2023-02-22T02:34:49.554Z,1021.95
2023-02-22T02:37:27.930Z,1022.06
2023-02-22T02:40:05.085Z,1022.04
2023-02-22T02:42:38.092Z,1021.94
2023-02-22T02:45:09.603Z,1021.83
2023-02-22T02:47:42.279Z,1021.84
2023-02-22T02:50:11.779Z,1021.73
2023-02-22T02:52:41.035Z,1021.74
2023-02-22T02:55:09.664Z,1021.74
2023-02-22T02:57:36.459Z,1021.85
2023-02-22T03:00:03.536Z,1021.72
2023-02-22T03:02:44.632Z,1021.74
2023-02-22T03:05:39.809Z,1021.77
2023-02-22T03:08:15.888Z,1021.84
2023-02-22T03:10:49.013Z,1021.82
2023-02-22T03:13:25.354Z,1021.78
2023-02-22T03:15:58.015Z,1021.76
2023-02-22T03:18:33.269Z,1021.72
2023-02-22T03:21:06.766Z,1021.77
2023-02-22T03:23:41.597Z,1021.69
2023-02-22T03:26:13.249Z,1021.81
2023-02-22T03:28:43.010Z,1021.73
2023-02-22T03:31:14.269Z,1021.72
2023-02-22T03:33:46.292Z,1021.77
2023-02-22T03:36:19.741Z,1021.83
2023-02-22T03:38:49.306Z,1021.84
2023-02-22T03:41:19.577Z,1021.79
2023-02-22T03:43:50.482Z,1021.90
2023-02-22T03:46:18.008Z,1021.91
2023-02-22T03:48:53.880Z,1021.84
2023-02-22T03:51:21.677Z,1021.89
2023-02-22T03:53:48.683Z,1021.88
2023-02-22T03:56:21.826Z,1021.88
2023-02-22T03:58:49.981Z,1021.85
2023-02-22T04:01:17.282Z,1021.82
2023-02-22T04:03:44.257Z,1021.78
2023-02-22T04:06:12.438Z,1021.82
2023-02-22T04:08:39.239Z,1021.78
2023-02-22T04:11:06.095Z,1021.57
2023-02-22T04:13:32.982Z,1021.68
2023-02-22T04:15:59.799Z,1021.61
2023-02-22T04:18:26.645Z,1021.66
2023-02-22T04:20:53.449Z,1021.72
2023-02-22T04:23:21.718Z,1021.70
2023-02-22T04:25:48.531Z,1021.75
2023-02-22T04:28:15.281Z,1021.83
2023-02-22T04:30:42.070Z,1021.74
2023-02-22T04:33:08.875Z,1021.78
2023-02-22T04:35:35.753Z,1021.76
2023-02-22T04:38:02.497Z,1021.76
2023-02-22T04:40:30.896Z,1021.65
2023-02-22T04:42:57.778Z,1021.74
2023-02-22T04:45:24.746Z,1021.65
2023-02-22T04:47:51.549Z,1021.68
2023-02-22T04:50:18.990Z,1021.62
2023-02-22T04:52:45.755Z,1021.65
2023-02-22T04:55:12.832Z,1021.69
2023-02-22T04:57:40.930Z,1021.74
2023-02-22T05:00:09.133Z,1021.68
2023-02-22T05:02:35.925Z,1021.71
2023-02-22T05:05:02.811Z,1021.65
2023-02-22T05:07:29.589Z,1021.79
2023-02-22T05:09:56.480Z,1021.62
2023-02-22T05:12:23.249Z,1021.60
2023-02-22T05:14:51.385Z,1021.56
2023-02-22T05:17:18.304Z,1021.63
2023-02-22T05:19:45.154Z,1021.51
2023-02-22T05:22:11.990Z,1021.57
2023-02-22T05:24:38.838Z,1021.59
2023-02-22T05:27:05.676Z,1021.59
2023-02-22T05:29:32.411Z,1021.60
2023-02-22T05:32:00.672Z,1021.54
2023-02-22T05:34:27.455Z,1021.66
2023-02-22T05:36:54.250Z,1021.73
2023-02-22T05:39:20.985Z,1021.66
2023-02-22T05:41:47.851Z,1021.71
2023-02-22T05:44:15.145Z,1021.62
2023-02-22T05:46:42.109Z,1021.64
2023-02-22T05:49:11.468Z,1021.59
2023-02-22T05:51:39.325Z,1021.69
2023-02-22T05:54:06.180Z,1021.66
2023-02-22T05:56:33.427Z,1021.73
2023-02-22T05:59:00.568Z,1021.72
2023-02-22T06:01:28.050Z,1021.68
2023-02-22T06:03:54.944Z,1021.74
2023-02-22T06:06:23.085Z,1021.75
2023-02-22T06:08:50.537Z,1021.83
2023-02-22T06:11:17.671Z,1021.90
2023-02-22T06:13:49.576Z,1021.92
2023-02-22T06:16:16.562Z,1021.90
2023-02-22T06:18:43.375Z,1021.98
2023-02-22T06:21:10.236Z,1021.92
2023-02-22T06:23:38.335Z,1021.94
2023-02-22T06:26:05.748Z,1021.88
2023-02-22T06:28:32.647Z,1021.81
2023-02-22T06:31:00.151Z,1021.90
2023-02-22T06:33:26.923Z,1021.89
2023-02-22T06:35:54.209Z,1021.93
2023-02-22T06:38:21.642Z,1022.02
2023-02-22T06:40:50.020Z,1022.00
2023-02-22T06:43:17.854Z,1022.07
2023-02-22T06:45:45.193Z,1021.99
2023-02-22T06:48:12.144Z,1021.96
2023-02-22T06:50:39.194Z,1022.00
2023-02-22T06:53:06.052Z,1022.03
2023-02-22T06:55:34.542Z,1022.03
2023-02-22T06:58:05.262Z,1022.02
2023-02-22T07:00:32.974Z,1022.01
2023-02-22T07:03:01.336Z,1021.98
2023-02-22T07:05:29.209Z,1021.99
2023-02-22T07:08:03.352Z,1022.02
2023-02-22T07:10:32.566Z,1022.01
2023-02-22T07:13:00.662Z,1021.96
2023-02-22T07:15:31.544Z,1021.98
2023-02-22T07:17:59.227Z,1021.90
2023-02-22T07:20:28.044Z,1021.90
2023-02-22T07:22:55.925Z,1021.88
2023-02-22T07:25:24.371Z,1021.79
2023-02-22T07:27:51.983Z,1021.69
2023-02-22T07:30:21.530Z,1021.54
2023-02-22T07:32:50.302Z,1021.47
2023-02-22T07:35:19.414Z,1021.33
2023-02-22T07:37:46.580Z,1021.21
2023-02-22T07:40:14.957Z,1021.02
2023-02-22T07:42:57.880Z,1020.96
2023-02-22T07:45:27.214Z,1020.90
2023-02-22T07:47:56.957Z,1020.72
2023-02-22T07:50:29.079Z,1020.63
2023-02-22T07:52:57.941Z,1020.43
2023-02-22T07:55:26.339Z,1020.27
2023-02-22T07:57:55.815Z,1020.10
2023-02-22T08:00:24.896Z,1019.96
2023-02-22T08:02:52.516Z,1019.85
2023-02-22T08:05:25.847Z,1019.81
2023-02-22T08:07:52.965Z,1019.68
2023-02-22T08:10:21.971Z,1019.63
2023-02-22T08:12:49.811Z,1019.53
2023-02-22T08:15:19.073Z,1019.36
2023-02-22T08:17:45.883Z,1019.25
2023-02-22T08:20:13.168Z,1019.22
2023-02-22T08:22:43.391Z,1019.07
2023-02-22T08:25:11.171Z,1018.98
2023-02-22T08:27:38.151Z,1018.91
2023-02-22T08:30:06.354Z,1018.83
2023-02-22T08:32:34.476Z,1018.67
2023-02-22T08:35:02.539Z,1018.59
2023-02-22T08:37:29.609Z,1018.49
2023-02-22T08:39:58.005Z,1018.41
2023-02-22T08:42:25.606Z,1018.42
2023-02-22T08:44:52.365Z,1018.39
2023-02-22T08:47:19.484Z,1018.24
2023-02-22T08:49:46.313Z,1018.27
2023-02-22T08:52:13.164Z,1018.16
2023-02-22T08:54:40.766Z,1018.11
2023-02-22T08:57:09.436Z,1018.07
2023-02-22T08:59:36.505Z,1018.07
2023-02-22T09:02:03.785Z,1018.01
2023-02-22T09:04:32.543Z,1017.84
2023-02-22T09:06:59.478Z,1017.86
2023-02-22T09:09:26.304Z,1017.77
2023-02-22T09:11:53.388Z,1017.71
2023-02-22T09:14:21.939Z,1017.74
2023-02-22T09:16:48.887Z,1017.67
2023-02-22T09:19:16.122Z,1017.53
2023-02-22T09:21:42.893Z,1017.50
2023-02-22T09:24:09.727Z,1017.53
2023-02-22T09:26:38.171Z,1017.43
2023-02-22T09:29:07.267Z,1017.35
2023-02-22T09:31:37.250Z,1017.33
2023-02-22T09:34:07.653Z,1017.17
2023-02-22T09:36:34.430Z,1017.26
2023-02-22T09:39:01.269Z,1017.06
2023-02-22T09:41:36.421Z,1017.11
2023-02-22T09:44:16.048Z,1017.22
2023-02-22T09:46:47.959Z,1017.32
2023-02-22T09:49:21.294Z,1017.36
2023-02-22T09:51:52.673Z,1017.24
2023-02-22T09:54:23.628Z,1017.22
2023-02-22T09:56:55.578Z,1017.25
2023-02-22T09:59:25.432Z,1017.22
2023-02-22T10:02:02.744Z,1017.17
2023-02-22T10:04:41.013Z,1017.11
2023-02-22T10:07:16.856Z,1016.92
2023-02-22T10:09:44.988Z,1016.84
2023-02-22T10:12:23.021Z,1016.78
2023-02-22T10:15:22.170Z,1016.58
2023-02-22T10:18:01.147Z,1016.51
2023-02-22T10:20:42.790Z,1016.39
2023-02-22T10:23:20.482Z,1016.33
2023-02-22T10:25:52.150Z,1016.32
2023-02-22T10:28:23.797Z,1016.28
2023-02-22T10:30:53.630Z,1016.31
2023-02-22T10:33:23.992Z,1016.22
2023-02-22T10:35:52.576Z,1016.25
2023-02-22T10:38:21.042Z,1016.23
2023-02-22T10:40:53.063Z,1016.14
2023-02-22T10:43:22.461Z,1016.14
2023-02-22T10:45:53.424Z,1016.09
2023-02-22T10:48:24.989Z,1016.07
2023-02-22T10:50:54.838Z,1016.04
2023-02-22T10:53:21.988Z,1015.98
2023-02-22T10:56:11.917Z,1015.88
2023-02-22T10:58:49.193Z,1015.81
2023-02-22T11:01:26.697Z,1015.82
2023-02-22T11:04:13.728Z,1015.59
2023-02-22T11:06:42.668Z,1015.61
2023-02-22T11:09:13.280Z,1015.45
2023-02-22T11:11:42.375Z,1015.35
2023-02-22T11:14:10.815Z,1015.35
2023-02-22T11:16:40.807Z,1015.28
2023-02-22T11:19:18.301Z,1015.13
2023-02-22T11:21:45.323Z,1015.05
2023-02-22T11:26:45.912Z,1015.02
2023-02-22T11:29:20.101Z,1014.91
2023-02-22T11:31:47.453Z,1014.74
2023-02-22T11:34:39.172Z,1014.71
2023-02-22T11:37:28.374Z,1014.62
2023-02-22T11:40:07.256Z,1014.61
2023-02-22T11:42:34.308Z,1014.57
2023-02-22T11:45:13.682Z,1014.56
2023-02-22T11:47:50.053Z,1014.60
2023-02-22T11:50:23.555Z,1014.67
2023-02-22T11:53:05.132Z,1014.70
2023-02-22T11:55:43.134Z,1014.73
2023-02-22T11:58:28.450Z,1014.67
2023-02-22T12:01:02.799Z,1014.59
2023-02-22T12:03:50.150Z,1014.47
2023-02-22T12:06:30.813Z,1014.52
2023-02-22T12:09:07.811Z,1014.68
2023-02-22T12:11:44.120Z,1014.65
2023-02-22T12:14:21.190Z,1014.69
2023-02-22T12:17:17.964Z,1014.62
2023-02-22T12:19:48.803Z,1014.53
2023-02-22T12:22:20.809Z,1014.43
2023-02-22T12:25:00.737Z,1014.35
2023-02-22T12:27:39.276Z,1014.30
2023-02-22T12:30:13.245Z,1014.29
2023-02-22T12:32:43.952Z,1014.17
2023-02-22T12:35:16.925Z,1014.13
2023-02-22T12:37:54.710Z,1013.94
2023-02-22T12:40:26.992Z,1013.91
2023-02-22T12:42:59.850Z,1013.85
2023-02-22T12:45:34.469Z,1013.91
2023-02-22T12:48:16.950Z,1013.84
2023-02-22T12:50:47.085Z,1013.84
2023-02-22T12:53:21.028Z,1013.74
2023-02-22T12:55:51.760Z,1013.62
2023-02-22T12:58:23.475Z,1013.59
2023-02-22T13:00:56.870Z,1013.50
2023-02-22T13:03:35.576Z,1013.47
2023-02-22T13:06:26.104Z,1013.41
2023-02-22T13:09:11.016Z,1013.44
2023-02-22T13:11:45.717Z,1013.43
2023-02-22T13:14:32.191Z,1013.41
2023-02-22T13:17:05.905Z,1013.31
2023-02-22T13:19:43.295Z,1013.26
2023-02-22T13:22:15.816Z,1013.25
2023-02-22T13:24:55.290Z,1013.26
2023-02-22T13:27:26.604Z,1013.23
2023-02-22T13:29:58.165Z,1013.25
2023-02-22T13:32:41.514Z,1013.35
2023-02-22T13:35:22.634Z,1013.22
2023-02-22T13:38:22.362Z,1013.21
2023-02-22T13:41:08.661Z,1013.17
2023-02-22T13:43:55.129Z,1013.19
2023-02-22T13:46:56.205Z,1013.25
2023-02-22T13:49:53.243Z,1013.22
2023-02-22T13:52:23.857Z,1013.28
2023-02-22T13:54:53.958Z,1013.32
2023-02-22T13:57:24.559Z,1013.43
2023-02-22T14:00:19.104Z,1013.36
2023-02-22T14:03:04.323Z,1013.44
2023-02-22T14:05:53.516Z,1013.53
2023-02-22T14:08:41.942Z,1013.56
2023-02-22T14:11:50.627Z,1013.62
2023-02-22T14:14:18.870Z,1013.55
2023-02-22T14:17:20.987Z,1013.65
2023-02-22T14:20:02.081Z,1013.49
2023-02-22T14:22:30.033Z,1013.38
2023-02-22T14:24:58.263Z,1013.31
2023-02-22T14:27:25.388Z,1013.21
2023-02-22T14:29:56.043Z,1013.15
2023-02-22T14:32:31.174Z,1013.05
2023-02-22T14:35:00.670Z,1013.03
2023-02-22T14:37:31.013Z,1012.83
2023-02-22T14:40:01.932Z,1012.83
2023-02-22T14:42:32.219Z,1012.66
2023-02-22T14:45:10.740Z,1012.56
2023-02-22T14:47:41.869Z,1012.54
2023-02-22T14:50:15.046Z,1012.57
2023-02-22T14:52:44.850Z,1012.50
2023-02-22T14:55:21.059Z,1012.51
2023-02-22T14:57:58.895Z,1012.51
2023-02-22T15:00:39.253Z,1012.55
2023-02-22T15:03:06.022Z,1012.50
2023-02-22T15:05:40.251Z,1012.62
2023-02-22T15:08:07.902Z,1012.59
2023-02-22T15:10:41.373Z,1012.72
2023-02-22T15:13:17.418Z,1012.75
2023-02-22T15:15:49.445Z,1012.83
2023-02-22T15:18:24.826Z,1012.90
2023-02-22T15:20:55.911Z,1012.86
2023-02-22T15:23:26.084Z,1012.94
2023-02-22T15:25:53.689Z,1012.97
2023-02-22T15:28:23.590Z,1013.01
2023-02-22T15:30:52.119Z,1013.03
2023-02-22T15:33:20.883Z,1013.03
2023-02-22T15:35:54.213Z,1013.03
2023-02-22T15:38:28.507Z,1013.09
2023-02-22T15:41:00.443Z,1013.28
2023-02-22T15:43:27.249Z,1013.28
2023-02-22T15:45:56.159Z,1013.24
2023-02-22T15:48:23.398Z,1013.27
2023-02-22T15:51:05.667Z,1013.28
2023-02-22T15:53:40.231Z,1013.32
2023-02-22T15:56:12.095Z,1013.32
2023-02-22T15:58:39.486Z,1013.26
2023-02-22T16:01:09.868Z,1013.38
2023-02-22T16:03:40.125Z,1013.43
2023-02-22T16:06:10.972Z,1013.47
2023-02-22T16:08:54.399Z,1013.61
2023-02-22T16:11:24.863Z,1013.73
2023-02-22T16:13:53.601Z,1013.86
2023-02-22T16:16:29.417Z,1014.04
2023-02-22T16:19:22.287Z,1014.18
2023-02-22T16:21:53.984Z,1014.26
2023-02-22T16:24:27.750Z,1014.31
2023-02-22T16:27:18.518Z,1014.61
2023-02-22T16:30:00.368Z,1014.81
2023-02-22T16:32:28.504Z,1014.83
2023-02-22T16:34:55.386Z,1014.93
2023-02-22T16:37:23.111Z,1014.96
2023-02-22T16:39:50.668Z,1015.07
2023-02-22T16:42:18.281Z,1015.15
2023-02-22T16:44:45.054Z,1015.16
2023-02-22T16:47:12.413Z,1015.13
2023-02-22T16:49:40.521Z,1015.27
2023-02-22T16:52:07.997Z,1015.32
2023-02-22T16:54:41.338Z,1015.41
2023-02-22T16:57:15.337Z,1015.47
2023-02-22T16:59:42.133Z,1015.45
2023-02-22T17:02:13.017Z,1015.52
2023-02-22T17:04:41.905Z,1015.62
2023-02-22T17:07:08.659Z,1015.70
2023-02-22T17:09:35.439Z,1015.80
2023-02-22T17:12:02.495Z,1015.83
2023-02-22T17:14:33.633Z,1015.75
2023-02-22T17:17:00.557Z,1015.89
2023-02-22T17:19:27.345Z,1015.79
2023-02-22T17:21:55.538Z,1015.76
2023-02-22T17:24:23.837Z,1015.90
2023-02-22T17:26:51.509Z,1015.84
2023-02-22T17:29:18.312Z,1015.95
2023-02-22T17:31:45.406Z,1015.95
2023-02-22T17:34:12.301Z,1015.98
2023-02-22T17:36:39.035Z,1016.01
2023-02-22T17:39:07.209Z,1016.03
2023-02-22T17:41:33.971Z,1016.07
2023-02-22T17:44:00.693Z,1016.06
2023-02-22T17:46:27.533Z,1016.08
2023-02-22T17:48:54.312Z,1016.13
2023-02-22T17:51:22.389Z,1016.03
2023-02-22T17:53:49.134Z,1016.14
2023-02-22T17:56:19.264Z,1016.13
2023-02-22T17:58:47.204Z,1016.16
2023-02-22T18:01:22.442Z,1016.18
2023-02-22T18:03:49.444Z,1016.26
2023-02-22T18:06:17.597Z,1016.24
2023-02-22T18:08:44.530Z,1016.27
2023-02-22T18:11:11.284Z,1016.32
2023-02-22T18:13:39.465Z,1016.25
2023-02-22T18:16:06.839Z,1016.43
2023-02-22T18:18:33.742Z,1016.48
2023-02-22T18:21:00.610Z,1016.39
2023-02-22T18:23:29.375Z,1016.36
2023-02-22T18:26:09.533Z,1016.46
2023-02-22T18:28:36.926Z,1016.55
2023-02-22T18:31:08.868Z,1016.60
2023-02-22T18:33:35.696Z,1016.62
2023-02-22T18:36:02.467Z,1016.54
2023-02-22T18:38:29.252Z,1016.57
2023-02-22T18:41:00.352Z,1016.65
2023-02-22T18:43:27.575Z,1016.72
2023-02-22T18:45:54.414Z,1016.63
2023-02-22T18:48:22.520Z,1016.66
2023-02-22T18:50:51.401Z,1016.61
2023-02-22T18:53:18.179Z,1016.63
2023-02-22T18:55:45.015Z,1016.66
2023-02-22T18:58:13.872Z,1016.64
2023-02-22T19:00:40.757Z,1016.68
2023-02-22T19:03:07.565Z,1016.78
2023-02-22T19:05:36.378Z,1016.93
2023-02-22T19:08:06.351Z,1016.96
2023-02-22T19:10:36.673Z,1017.11
2023-02-22T19:13:06.590Z,1017.01
2023-02-22T19:15:33.753Z,1016.92
2023-02-22T19:18:00.616Z,1016.94
2023-02-22T19:20:27.425Z,1016.98
2023-02-22T19:22:55.606Z,1017.01
2023-02-22T19:25:22.419Z,1017.19
2023-02-22T19:27:49.166Z,1017.15
2023-02-22T19:30:16.055Z,1017.17
2023-02-22T19:32:42.881Z,1017.17
2023-02-22T19:35:11.591Z,1017.26
2023-02-22T19:37:38.917Z,1017.32
2023-02-22T19:40:08.120Z,1017.28
2023-02-22T19:42:35.101Z,1017.25
2023-02-22T19:45:01.850Z,1017.35
2023-02-22T19:47:28.591Z,1017.31
2023-02-22T19:49:56.594Z,1017.45
2023-02-22T19:52:25.139Z,1017.46
2023-02-22T19:54:51.889Z,1017.51
2023-02-22T19:57:20.014Z,1017.52
2023-02-22T19:59:46.990Z,1017.44
2023-02-22T20:02:13.772Z,1017.63
2023-02-22T20:04:40.646Z,1017.52
2023-02-22T20:07:07.510Z,1017.60
2023-02-22T20:09:34.277Z,1017.56
2023-02-22T20:12:01.025Z,1017.66
2023-02-22T20:14:29.190Z,1017.67
2023-02-22T20:16:57.400Z,1017.66
2023-02-22T20:19:25.076Z,1017.58
2023-02-22T20:21:52.455Z,1017.63
2023-02-22T20:24:19.432Z,1017.65
2023-02-22T20:26:46.942Z,1017.68
2023-02-22T20:29:14.481Z,1017.68
2023-02-22T20:31:43.430Z,1017.67
2023-02-22T20:34:11.009Z,1017.69
2023-02-22T20:36:39.463Z,1017.71
2023-02-22T20:39:08.155Z,1017.67
2023-02-22T20:41:35.901Z,1017.69
2023-02-22T20:44:03.593Z,1017.75
2023-02-22T20:46:31.616Z,1017.82
2023-02-22T20:49:01.546Z,1017.91
2023-02-22T20:51:29.285Z,1017.95
2023-02-22T20:53:57.638Z,1017.93
2023-02-22T20:56:24.488Z,1018.01
2023-02-22T20:58:51.957Z,1018.07
2023-02-22T21:01:20.671Z,1018.09
2023-02-22T21:03:47.716Z,1018.08
2023-02-22T21:06:17.526Z,1018.14
2023-02-22T21:08:49.081Z,1018.24
2023-02-22T21:11:17.925Z,1018.14
2023-02-22T21:13:44.822Z,1018.14
2023-02-22T21:16:18.208Z,1018.16
2023-02-22T21:18:44.990Z,1018.03
2023-02-22T21:21:11.767Z,1018.04
2023-02-22T21:23:40.806Z,1018.10
2023-02-22T21:26:13.293Z,1017.99
2023-02-22T21:28:50.831Z,1018.07
2023-02-22T21:31:20.068Z,1017.99
2023-02-22T21:33:49.219Z,1018.04
2023-02-22T21:36:16.098Z,1018.10
2023-02-22T21:38:45.839Z,1018.25
2023-02-22T21:41:12.991Z,1018.43
2023-02-22T21:43:39.804Z,1018.21
2023-02-22T21:46:08.077Z,1018.07
2023-02-22T21:48:34.969Z,1018.06
2023-02-22T21:51:08.571Z,1018.02
2023-02-22T21:53:35.450Z,1018.00
2023-02-22T21:56:05.234Z,1018.01
2023-02-22T21:58:31.968Z,1017.97
2023-02-22T22:01:04.568Z,1018.08
2023-02-22T22:03:31.701Z,1017.96
2023-02-22T22:05:58.557Z,1018.10
2023-02-22T22:08:25.412Z,1018.09
2023-02-22T22:10:52.571Z,1018.08
2023-02-22T22:13:20.724Z,1018.10
2023-02-22T22:15:47.485Z,1017.98
2023-02-22T22:18:14.569Z,1017.97
2023-02-22T22:20:41.367Z,1017.95
2023-02-22T22:23:08.158Z,1018.07
2023-02-22T22:25:34.980Z,1018.01
2023-02-22T22:28:01.739Z,1017.97
2023-02-22T22:30:29.874Z,1017.86
2023-02-22T22:32:56.603Z,1017.95
2023-02-22T22:35:23.322Z,1018.04
2023-02-22T22:37:50.141Z,1018.03
2023-02-22T22:40:17.972Z,1018.04
2023-02-22T22:42:45.891Z,1018.05
2023-02-22T22:45:13.172Z,1018.00
2023-02-22T22:47:41.372Z,1017.93
2023-02-22T22:50:09.490Z,1017.87
2023-02-22T22:52:36.285Z,1017.99
2023-02-22T22:55:03.175Z,1018.05
2023-02-22T22:57:29.925Z,1017.99
2023-02-22T22:59:56.733Z,1018.07
2023-02-22T23:02:23.480Z,1018.03
2023-02-22T23:04:51.867Z,1018.13
2023-02-22T23:07:18.614Z,1018.13
2023-02-22T23:09:45.434Z,1018.13
2023-02-22T23:12:12.170Z,1018.12
2023-02-22T23:14:40.718Z,1018.16
2023-02-22T23:17:07.466Z,1018.12
2023-02-22T23:19:36.554Z,1018.12
2023-02-22T23:22:05.623Z,1018.15
2023-02-22T23:24:34.312Z,1018.13
2023-02-22T23:27:01.132Z,1018.16
2023-02-22T23:29:28.643Z,1018.19
2023-02-22T23:31:55.453Z,1018.20
2023-02-22T23:34:23.233Z,1018.18
2023-02-22T23:36:50.366Z,1018.22
2023-02-22T23:39:19.832Z,1018.26
2023-02-22T23:41:49.962Z,1018.29
2023-02-22T23:44:16.710Z,1018.24
2023-02-22T23:46:43.934Z,1018.25
2023-02-22T23:49:11.271Z,1018.26
2023-02-22T23:51:38.928Z,1018.31
2023-02-22T23:54:06.907Z,1018.33
2023-02-22T23:56:35.802Z,1018.32
2023-02-22T23:59:04.074Z,1018.21
